createdAt,value
2017-12-23T00:00:05.289Z,984.85
2017-12-23T00:15:05.631Z,985.06
2017-12-23T00:30:04.786Z,984.74
2017-12-23T00:45:04.904Z,984.36
2017-12-23T01:00:07.724Z,984.39
2017-12-23T01:15:05.666Z,983.96
2017-12-23T01:30:04.865Z,984.25
2017-12-23T01:45:05.298Z,984.01
2017-12-23T02:00:05.369Z,983.96
2017-12-23T02:15:05.481Z,983.96
2017-12-23T02:30:07.758Z,983.98
2017-12-23T02:45:04.754Z,984.12
2017-12-23T03:00:04.681Z,984.01
2017-12-23T03:15:07.740Z,984.12
2017-12-23T03:30:04.849Z,983.93
2017-12-23T03:45:08.586Z,983.88
2017-12-23T04:00:05.585Z,983.74
2017-12-23T04:15:06.240Z,983.61
2017-12-23T04:30:06.650Z,983.42
2017-12-23T04:45:05.195Z,983.77
2017-12-23T05:00:05.894Z,983.66
2017-12-23T05:15:05.697Z,983.96
2017-12-23T05:30:04.441Z,983.79
2017-12-23T05:45:08.012Z,983.85
2017-12-23T06:00:08.238Z,984.06
2017-12-23T06:15:06.226Z,983.98
2017-12-23T06:30:04.924Z,984.01
2017-12-23T06:45:05.632Z,984.31
2017-12-23T07:00:05.396Z,984.5
2017-12-23T07:15:04.924Z,984.17
2017-12-23T07:30:05.126Z,984.12
2017-12-23T07:45:04.621Z,984.17
2017-12-23T08:00:05.329Z,984.28
2017-12-23T08:15:04.794Z,984.44
2017-12-23T08:30:08.235Z,983.93
2017-12-23T08:45:05.881Z,983.39
2017-12-23T09:00:04.766Z,982.96
2017-12-23T09:15:04.871Z,982.79
2017-12-23T09:30:12.399Z,982.28
2017-12-23T09:45:05.839Z,981.93
2017-12-23T10:00:05.872Z,981.47
2017-12-23T10:15:11.147Z,980.99
2017-12-23T10:30:05.261Z,981.2
2017-12-23T10:45:07.634Z,980.96
2017-12-23T11:00:04.971Z,981.5
2017-12-23T11:15:04.845Z,981.85
2017-12-23T11:30:04.711Z,982.04
2017-12-23T11:45:12.293Z,981.31
2017-12-23T12:00:08.160Z,982.15
2017-12-23T12:15:08.122Z,981.69
2017-12-23T12:30:06.447Z,981.34
2017-12-23T12:45:05.008Z,980.74
2017-12-23T13:00:06.339Z,980.93
2017-12-23T13:15:05.676Z,981.07
2017-12-23T13:30:05.400Z,981.39
2017-12-23T13:45:05.034Z,981.36
2017-12-23T14:00:04.581Z,981.5
2017-12-23T14:15:05.081Z,981.74
2017-12-23T14:30:05.168Z,981.85
2017-12-23T14:45:08.188Z,982.25
2017-12-23T15:00:05.077Z,982.39
2017-12-23T15:15:04.478Z,982.23
2017-12-23T15:30:06.137Z,982.2
2017-12-23T15:45:10.568Z,982.23
2017-12-23T16:00:08.070Z,982.52
2017-12-23T16:15:04.481Z,982.55
2017-12-23T16:30:05.098Z,983.58
2017-12-23T16:45:04.435Z,982.98
2017-12-23T17:00:04.319Z,983.63
2017-12-23T17:15:05.745Z,982.98
2017-12-23T17:30:04.334Z,983.12
2017-12-23T17:45:04.761Z,983.2
2017-12-23T18:00:05.575Z,983.31
2017-12-23T18:15:04.501Z,983.58
2017-12-23T18:30:05.218Z,983.36
2017-12-23T18:45:04.848Z,983.47
2017-12-23T19:00:05.255Z,983.39
2017-12-23T19:15:05.026Z,983.47
2017-12-23T19:30:05.426Z,983.55
2017-12-23T19:45:06.003Z,984.09
2017-12-23T20:00:04.861Z,977.16
2017-12-23T20:15:08.769Z,977.02
2017-12-23T20:30:05.629Z,977.16
2017-12-23T20:45:21.139Z,977.18
2017-12-23T21:00:05.071Z,977.05
2017-12-23T21:15:05.387Z,977.02
2017-12-23T21:30:04.682Z,976.92
2017-12-23T21:45:05.025Z,977.08
2017-12-23T22:00:04.866Z,977.42
2017-12-23T22:15:04.932Z,978.01
2017-12-23T22:30:04.740Z,977.5
2017-12-23T22:45:04.910Z,977.37
2017-12-23T23:00:05.307Z,977.67
2017-12-23T23:15:14.956Z,977.88
2017-12-23T23:30:05.784Z,977.69
2017-12-23T23:45:06.126Z,977.61
